Terminal Aerodrome Forecast
Issued by NWS

Home | Current Version | Previous Version | Text Only | Print | Product List | Glossary On
Versions: 1 2 3 4 5 6 7 8 9 10 11 12 13 14 15 16 17 18 19 20 21 22 23 24 25
000
FTUS44 KHGX 250034 AAA
TAFLBX
TAF AMD
KLBX 250034Z 2501/2524 19010KT P6SM VCSH FEW050 BKN070
     FM250300 18005KT P6SM SCT040
     FM250600 VRB02KT 3SM BR SCT010
     FM251500 05007KT P6SM SCT020
     FM251900 13008KT P6SM FEW050=

USA.gov is the U.S. government's official web portal to all federal, state and local government web resources and services.